sensor_id;sensor_type;location;lat;lon;timestamp;P1;durP1;ratioP1;P2;durP2;ratioP2
11927;SDS011;6023;47.070;15.126;2023-05-10T00:01:03;7.30;;;6.03;;
11927;SDS011;6023;47.070;15.126;2023-05-10T00:03:33;6.30;;;5.70;;
11927;SDS011;6023;47.070;15.126;2023-05-10T00:06:02;6.57;;;5.87;;
11927;SDS011;6023;47.070;15.126;2023-05-10T00:08:30;6.63;;;5.80;;
11927;SDS011;6023;47.070;15.126;2023-05-10T00:10:59;6.03;;;5.40;;
11927;SDS011;6023;47.070;15.126;2023-05-10T00:13:27;7.37;;;5.63;;
11927;SDS011;6023;47.070;15.126;2023-05-10T00:15:56;7.30;;;5.77;;
11927;SDS011;6023;47.070;15.126;2023-05-10T00:18:24;7.40;;;6.07;;
11927;SDS011;6023;47.070;15.126;2023-05-10T00:20:54;6.47;;;5.63;;
11927;SDS011;6023;47.070;15.126;2023-05-10T00:23:22;6.23;;;5.07;;
11927;SDS011;6023;47.070;15.126;2023-05-10T00:25:51;6.27;;;5.67;;
11927;SDS011;6023;47.070;15.126;2023-05-10T00:28:19;5.90;;;5.30;;
11927;SDS011;6023;47.070;15.126;2023-05-10T00:30:48;5.63;;;5.10;;
11927;SDS011;6023;47.070;15.126;2023-05-10T00:33:16;6.03;;;5.43;;
11927;SDS011;6023;47.070;15.126;2023-05-10T00:35:45;6.17;;;4.93;;
11927;SDS011;6023;47.070;15.126;2023-05-10T00:38:15;6.10;;;5.50;;
11927;SDS011;6023;47.070;15.126;2023-05-10T00:40:43;5.50;;;5.00;;
11927;SDS011;6023;47.070;15.126;2023-05-10T00:43:12;5.47;;;4.93;;
11927;SDS011;6023;47.070;15.126;2023-05-10T00:45:40;7.53;;;4.63;;
11927;SDS011;6023;47.070;15.126;2023-05-10T00:48:09;6.73;;;4.60;;
11927;SDS011;6023;47.070;15.126;2023-05-10T00:50:37;5.70;;;4.57;;
11927;SDS011;6023;47.070;15.126;2023-05-10T00:53:06;6.00;;;4.70;;
11927;SDS011;6023;47.070;15.126;2023-05-10T00:55:37;6.20;;;4.50;;
11927;SDS011;6023;47.070;15.126;2023-05-10T00:58:05;4.93;;;4.20;;
11927;SDS011;6023;47.070;15.126;2023-05-10T01:00:34;5.90;;;4.40;;
11927;SDS011;6023;47.070;15.126;2023-05-10T01:03:04;5.47;;;4.50;;
11927;SDS011;6023;47.070;15.126;2023-05-10T01:05:32;4.30;;;3.90;;
11927;SDS011;6023;47.070;15.126;2023-05-10T01:08:01;4.90;;;4.33;;
11927;SDS011;6023;47.070;15.126;2023-05-10T01:10:30;4.67;;;3.83;;
11927;SDS011;6023;47.070;15.126;2023-05-10T01:13:00;4.50;;;4.03;;
11927;SDS011;6023;47.070;15.126;2023-05-10T01:15:29;5.83;;;4.00;;
11927;SDS011;6023;47.070;15.126;2023-05-10T01:17:59;6.23;;;4.43;;
11927;SDS011;6023;47.070;15.126;2023-05-10T01:20:29;4.40;;;4.00;;
11927;SDS011;6023;47.070;15.126;2023-05-10T01:23:10;5.63;;;4.20;;
11927;SDS011;6023;47.070;15.126;2023-05-10T01:32:11;4.90;;;4.40;;
11927;SDS011;6023;47.070;15.126;2023-05-10T01:34:55;4.83;;;4.23;;
11927;SDS011;6023;47.070;15.126;2023-05-10T01:37:31;4.40;;;4.00;;
11927;SDS011;6023;47.070;15.126;2023-05-10T01:40:07;6.13;;;4.07;;
11927;SDS011;6023;47.070;15.126;2023-05-10T01:42:40;4.40;;;3.90;;
11927;SDS011;6023;47.070;15.126;2023-05-10T01:45:14;4.47;;;3.80;;
11927;SDS011;6023;47.070;15.126;2023-05-10T01:47:49;3.97;;;3.60;;
11927;SDS011;6023;47.070;15.126;2023-05-10T01:50:22;4.20;;;3.80;;
11927;SDS011;6023;47.070;15.126;2023-05-10T01:52:54;4.17;;;3.73;;
11927;SDS011;6023;47.070;15.126;2023-05-10T01:55:25;4.10;;;3.70;;
11927;SDS011;6023;47.070;15.126;2023-05-10T01:57:56;4.37;;;3.97;;
11927;SDS011;6023;47.070;15.126;2023-05-10T02:00:28;5.03;;;4.00;;
11927;SDS011;6023;47.070;15.126;2023-05-10T02:02:59;4.30;;;3.60;;
11927;SDS011;6023;47.070;15.126;2023-05-10T02:05:28;4.10;;;3.70;;
11927;SDS011;6023;47.070;15.126;2023-05-10T02:07:58;4.00;;;3.60;;
11927;SDS011;6023;47.070;15.126;2023-05-10T02:10:28;4.60;;;3.77;;
11927;SDS011;6023;47.070;15.126;2023-05-10T02:12:58;4.97;;;3.50;;
11927;SDS011;6023;47.070;15.126;2023-05-10T02:15:27;4.43;;;3.20;;
11927;SDS011;6023;47.070;15.126;2023-05-10T02:17:56;5.13;;;4.10;;
11927;SDS011;6023;47.070;15.126;2023-05-10T02:20:27;4.87;;;4.00;;
11927;SDS011;6023;47.070;15.126;2023-05-10T02:22:57;4.27;;;3.83;;
11927;SDS011;6023;47.070;15.126;2023-05-10T02:25:26;5.40;;;3.63;;
11927;SDS011;6023;47.070;15.126;2023-05-10T02:27:55;4.70;;;3.70;;
11927;SDS011;6023;47.070;15.126;2023-05-10T02:30:24;4.43;;;4.03;;
11927;SDS011;6023;47.070;15.126;2023-05-10T02:32:53;5.30;;;4.10;;
11927;SDS011;6023;47.070;15.126;2023-05-10T02:35:24;6.37;;;4.27;;
11927;SDS011;6023;47.070;15.126;2023-05-10T02:37:54;5.80;;;4.30;;
11927;SDS011;6023;47.070;15.126;2023-05-10T02:40:23;4.90;;;4.40;;
11927;SDS011;6023;47.070;15.126;2023-05-10T02:42:55;4.33;;;3.93;;
11927;SDS011;6023;47.070;15.126;2023-05-10T02:45:26;4.60;;;3.90;;
11927;SDS011;6023;47.070;15.126;2023-05-10T02:47:57;4.37;;;3.83;;
11927;SDS011;6023;47.070;15.126;2023-05-10T02:50:28;4.47;;;4.03;;
11927;SDS011;6023;47.070;15.126;2023-05-10T02:52:59;4.97;;;4.47;;
11927;SDS011;6023;47.070;15.126;2023-05-10T02:55:31;4.80;;;3.90;;
11927;SDS011;6023;47.070;15.126;2023-05-10T02:58:06;5.23;;;4.00;;
11927;SDS011;6023;47.070;15.126;2023-05-10T03:00:35;5.07;;;3.60;;
11927;SDS011;6023;47.070;15.126;2023-05-10T03:03:04;4.03;;;3.63;;
11927;SDS011;6023;47.070;15.126;2023-05-10T03:05:34;5.83;;;4.10;;
11927;SDS011;6023;47.070;15.126;2023-05-10T03:08:03;5.43;;;3.90;;
11927;SDS011;6023;47.070;15.126;2023-05-10T03:10:32;6.40;;;4.40;;
11927;SDS011;6023;47.070;15.126;2023-05-10T03:13:08;7.37;;;4.33;;
11927;SDS011;6023;47.070;15.126;2023-05-10T03:15:42;13.77;;;10.00;;
11927;SDS011;6023;47.070;15.126;2023-05-10T03:18:18;17.10;;;14.60;;
11927;SDS011;6023;47.070;15.126;2023-05-10T03:20:51;27.20;;;22.67;;
11927;SDS011;6023;47.070;15.126;2023-05-10T03:23:26;15.03;;;11.93;;
11927;SDS011;6023;47.070;15.126;2023-05-10T03:25:56;5.93;;;4.90;;
11927;SDS011;6023;47.070;15.126;2023-05-10T03:28:26;4.63;;;3.87;;
11927;SDS011;6023;47.070;15.126;2023-05-10T03:30:55;5.50;;;4.20;;
11927;SDS011;6023;47.070;15.126;2023-05-10T03:33:24;4.20;;;3.80;;
11927;SDS011;6023;47.070;15.126;2023-05-10T03:35:54;5.03;;;3.97;;
11927;SDS011;6023;47.070;15.126;2023-05-10T03:38:22;3.60;;;3.27;;
11927;SDS011;6023;47.070;15.126;2023-05-10T03:40:51;4.40;;;3.90;;
11927;SDS011;6023;47.070;15.126;2023-05-10T03:43:19;4.60;;;3.77;;
11927;SDS011;6023;47.070;15.126;2023-05-10T03:45:48;9.83;;;4.30;;
11927;SDS011;6023;47.070;15.126;2023-05-10T03:48:16;5.50;;;4.23;;
11927;SDS011;6023;47.070;15.126;2023-05-10T03:50:45;5.60;;;3.93;;
11927;SDS011;6023;47.070;15.126;2023-05-10T03:53:14;6.20;;;4.30;;
11927;SDS011;6023;47.070;15.126;2023-05-10T03:55:44;5.47;;;4.13;;
11927;SDS011;6023;47.070;15.126;2023-05-10T03:58:13;6.03;;;4.00;;
11927;SDS011;6023;47.070;15.126;2023-05-10T04:00:41;4.50;;;3.67;;
11927;SDS011;6023;47.070;15.126;2023-05-10T04:03:12;4.60;;;4.00;;
11927;SDS011;6023;47.070;15.126;2023-05-10T04:05:41;4.50;;;3.60;;
11927;SDS011;6023;47.070;15.126;2023-05-10T04:08:09;4.90;;;3.43;;
11927;SDS011;6023;47.070;15.126;2023-05-10T04:10:39;4.00;;;3.30;;
11927;SDS011;6023;47.070;15.126;2023-05-10T04:13:07;6.47;;;3.70;;
11927;SDS011;6023;47.070;15.126;2023-05-10T04:15:36;5.03;;;3.63;;
11927;SDS011;6023;47.070;15.126;2023-05-10T04:18:04;5.27;;;3.30;;
11927;SDS011;6023;47.070;15.126;2023-05-10T04:20:34;6.47;;;3.93;;
11927;SDS011;6023;47.070;15.126;2023-05-10T04:23:03;5.20;;;3.80;;
11927;SDS011;6023;47.070;15.126;2023-05-10T04:25:33;4.20;;;3.70;;
11927;SDS011;6023;47.070;15.126;2023-05-10T04:28:06;4.83;;;4.00;;
11927;SDS011;6023;47.070;15.126;2023-05-10T04:30:37;6.87;;;4.67;;
11927;SDS011;6023;47.070;15.126;2023-05-10T04:33:09;4.60;;;4.17;;
11927;SDS011;6023;47.070;15.126;2023-05-10T04:35:39;6.83;;;4.70;;
11927;SDS011;6023;47.070;15.126;2023-05-10T04:38:08;7.53;;;5.10;;
11927;SDS011;6023;47.070;15.126;2023-05-10T04:40:37;7.20;;;5.50;;
11927;SDS011;6023;47.070;15.126;2023-05-10T04:43:06;12.37;;;8.43;;
11927;SDS011;6023;47.070;15.126;2023-05-10T04:45:35;7.60;;;5.73;;
11927;SDS011;6023;47.070;15.126;2023-05-10T04:48:04;9.23;;;6.20;;
11927;SDS011;6023;47.070;15.126;2023-05-10T04:50:33;5.27;;;4.60;;
11927;SDS011;6023;47.070;15.126;2023-05-10T04:53:01;7.53;;;5.50;;
11927;SDS011;6023;47.070;15.126;2023-05-10T04:55:30;6.03;;;5.00;;
11927;SDS011;6023;47.070;15.126;2023-05-10T04:57:58;6.70;;;4.70;;
11927;SDS011;6023;47.070;15.126;2023-05-10T05:00:28;6.20;;;4.90;;
11927;SDS011;6023;47.070;15.126;2023-05-10T05:02:57;8.23;;;4.70;;
11927;SDS011;6023;47.070;15.126;2023-05-10T05:05:25;6.33;;;4.50;;
11927;SDS011;6023;47.070;15.126;2023-05-10T05:07:54;6.30;;;4.93;;
11927;SDS011;6023;47.070;15.126;2023-05-10T05:10:22;10.10;;;5.57;;
11927;SDS011;6023;47.070;15.126;2023-05-10T05:12:51;10.13;;;4.90;;
11927;SDS011;6023;47.070;15.126;2023-05-10T05:15:20;5.63;;;4.50;;
11927;SDS011;6023;47.070;15.126;2023-05-10T05:17:50;9.03;;;6.40;;
11927;SDS011;6023;47.070;15.126;2023-05-10T05:20:18;6.20;;;4.53;;
11927;SDS011;6023;47.070;15.126;2023-05-10T05:22:47;7.47;;;4.90;;
11927;SDS011;6023;47.070;15.126;2023-05-10T05:25:16;6.00;;;4.70;;
11927;SDS011;6023;47.070;15.126;2023-05-10T05:27:44;5.93;;;4.70;;
11927;SDS011;6023;47.070;15.126;2023-05-10T05:30:12;5.67;;;4.37;;
11927;SDS011;6023;47.070;15.126;2023-05-10T05:32:41;5.47;;;4.30;;
11927;SDS011;6023;47.070;15.126;2023-05-10T05:35:11;6.00;;;4.10;;
11927;SDS011;6023;47.070;15.126;2023-05-10T05:37:40;6.00;;;4.57;;
11927;SDS011;6023;47.070;15.126;2023-05-10T05:40:12;5.63;;;4.23;;
11927;SDS011;6023;47.070;15.126;2023-05-10T05:42:40;5.07;;;4.40;;
11927;SDS011;6023;47.070;15.126;2023-05-10T05:45:09;6.77;;;4.50;;
11927;SDS011;6023;47.070;15.126;2023-05-10T05:47:40;6.30;;;4.40;;
11927;SDS011;6023;47.070;15.126;2023-05-10T05:50:13;6.03;;;4.77;;
11927;SDS011;6023;47.070;15.126;2023-05-10T05:52:42;7.33;;;4.37;;
11927;SDS011;6023;47.070;15.126;2023-05-10T05:55:10;6.47;;;4.40;;
11927;SDS011;6023;47.070;15.126;2023-05-10T05:57:39;5.67;;;4.37;;
11927;SDS011;6023;47.070;15.126;2023-05-10T06:00:08;4.63;;;4.20;;
11927;SDS011;6023;47.070;15.126;2023-05-10T06:02:37;6.93;;;4.50;;
11927;SDS011;6023;47.070;15.126;2023-05-10T06:05:08;4.67;;;4.13;;
11927;SDS011;6023;47.070;15.126;2023-05-10T06:07:38;4.77;;;4.23;;
11927;SDS011;6023;47.070;15.126;2023-05-10T06:10:08;5.50;;;4.10;;
11927;SDS011;6023;47.070;15.126;2023-05-10T06:12:37;5.03;;;3.90;;
11927;SDS011;6023;47.070;15.126;2023-05-10T06:15:06;5.23;;;3.90;;
11927;SDS011;6023;47.070;15.126;2023-05-10T06:17:36;6.40;;;4.20;;
11927;SDS011;6023;47.070;15.126;2023-05-10T06:20:06;5.23;;;4.10;;
11927;SDS011;6023;47.070;15.126;2023-05-10T06:22:35;3.93;;;3.50;;
11927;SDS011;6023;47.070;15.126;2023-05-10T06:25:05;4.63;;;3.63;;
11927;SDS011;6023;47.070;15.126;2023-05-10T06:27:34;4.47;;;3.40;;
11927;SDS011;6023;47.070;15.126;2023-05-10T06:30:03;4.97;;;3.47;;
11927;SDS011;6023;47.070;15.126;2023-05-10T06:32:39;5.77;;;3.90;;
11927;SDS011;6023;47.070;15.126;2023-05-10T06:35:08;4.13;;;3.40;;
11927;SDS011;6023;47.070;15.126;2023-05-10T06:37:37;4.20;;;3.80;;
11927;SDS011;6023;47.070;15.126;2023-05-10T06:40:07;5.83;;;4.20;;
11927;SDS011;6023;47.070;15.126;2023-05-10T06:42:36;6.33;;;4.13;;
11927;SDS011;6023;47.070;15.126;2023-05-10T06:45:06;5.10;;;3.70;;
11927;SDS011;6023;47.070;15.126;2023-05-10T06:47:35;5.80;;;3.80;;
11927;SDS011;6023;47.070;15.126;2023-05-10T06:50:05;4.67;;;3.60;;
11927;SDS011;6023;47.070;15.126;2023-05-10T06:52:34;6.40;;;3.87;;
11927;SDS011;6023;47.070;15.126;2023-05-10T06:55:03;4.63;;;4.03;;
11927;SDS011;6023;47.070;15.126;2023-05-10T06:57:34;6.60;;;5.10;;
11927;SDS011;6023;47.070;15.126;2023-05-10T07:00:02;5.97;;;4.87;;
11927;SDS011;6023;47.070;15.126;2023-05-10T07:02:32;5.20;;;4.33;;
11927;SDS011;6023;47.070;15.126;2023-05-10T07:05:00;5.00;;;3.90;;
11927;SDS011;6023;47.070;15.126;2023-05-10T07:07:29;4.53;;;3.70;;
11927;SDS011;6023;47.070;15.126;2023-05-10T07:09:57;4.43;;;4.03;;
11927;SDS011;6023;47.070;15.126;2023-05-10T07:12:26;15.80;;;14.27;;
11927;SDS011;6023;47.070;15.126;2023-05-10T07:14:56;6.63;;;4.33;;
11927;SDS011;6023;47.070;15.126;2023-05-10T07:17:24;5.83;;;4.23;;
11927;SDS011;6023;47.070;15.126;2023-05-10T07:19:53;4.73;;;4.03;;
11927;SDS011;6023;47.070;15.126;2023-05-10T07:22:21;10.50;;;9.40;;
11927;SDS011;6023;47.070;15.126;2023-05-10T07:24:50;6.00;;;4.90;;
11927;SDS011;6023;47.070;15.126;2023-05-10T07:27:18;6.70;;;4.80;;
11927;SDS011;6023;47.070;15.126;2023-05-10T07:29:47;8.10;;;6.37;;
11927;SDS011;6023;47.070;15.126;2023-05-10T07:32:16;5.73;;;4.27;;
11927;SDS011;6023;47.070;15.126;2023-05-10T07:34:45;4.93;;;4.33;;
11927;SDS011;6023;47.070;15.126;2023-05-10T07:37:13;5.70;;;3.93;;
11927;SDS011;6023;47.070;15.126;2023-05-10T07:39:42;4.43;;;4.00;;
11927;SDS011;6023;47.070;15.126;2023-05-10T07:42:10;6.30;;;4.00;;
11927;SDS011;6023;47.070;15.126;2023-05-10T07:44:43;4.53;;;4.10;;
11927;SDS011;6023;47.070;15.126;2023-05-10T07:47:12;5.77;;;4.93;;
11927;SDS011;6023;47.070;15.126;2023-05-10T07:49:42;5.17;;;4.30;;
11927;SDS011;6023;47.070;15.126;2023-05-10T07:52:10;9.80;;;8.80;;
11927;SDS011;6023;47.070;15.126;2023-05-10T07:54:38;12.17;;;10.33;;
11927;SDS011;6023;47.070;15.126;2023-05-10T07:57:07;7.30;;;6.50;;
11927;SDS011;6023;47.070;15.126;2023-05-10T07:59:35;6.53;;;5.40;;
11927;SDS011;6023;47.070;15.126;2023-05-10T08:02:04;10.73;;;9.43;;
11927;SDS011;6023;47.070;15.126;2023-05-10T08:04:32;6.50;;;5.73;;
11927;SDS011;6023;47.070;15.126;2023-05-10T08:07:03;7.27;;;5.43;;
11927;SDS011;6023;47.070;15.126;2023-05-10T08:09:31;6.60;;;4.73;;
11927;SDS011;6023;47.070;15.126;2023-05-10T08:11:59;5.23;;;4.57;;
11927;SDS011;6023;47.070;15.126;2023-05-10T08:14:28;5.60;;;5.00;;
11927;SDS011;6023;47.070;15.126;2023-05-10T08:16:57;5.00;;;4.50;;
11927;SDS011;6023;47.070;15.126;2023-05-10T08:19:25;5.17;;;4.60;;
11927;SDS011;6023;47.070;15.126;2023-05-10T08:21:54;7.17;;;4.67;;
11927;SDS011;6023;47.070;15.126;2023-05-10T08:24:24;5.80;;;4.87;;
11927;SDS011;6023;47.070;15.126;2023-05-10T08:26:53;5.63;;;4.40;;
11927;SDS011;6023;47.070;15.126;2023-05-10T08:29:21;6.27;;;4.37;;
11927;SDS011;6023;47.070;15.126;2023-05-10T08:31:52;4.83;;;4.23;;
11927;SDS011;6023;47.070;15.126;2023-05-10T08:34:20;5.33;;;4.50;;
11927;SDS011;6023;47.070;15.126;2023-05-10T08:36:49;5.73;;;4.30;;
11927;SDS011;6023;47.070;15.126;2023-05-10T08:39:18;5.37;;;4.50;;
11927;SDS011;6023;47.070;15.126;2023-05-10T08:41:57;5.40;;;4.63;;
11927;SDS011;6023;47.070;15.126;2023-05-10T08:44:29;5.93;;;4.57;;
11927;SDS011;6023;47.070;15.126;2023-05-10T08:46:58;5.13;;;4.20;;
11927;SDS011;6023;47.070;15.126;2023-05-10T08:49:27;6.17;;;4.00;;
11927;SDS011;6023;47.070;15.126;2023-05-10T08:51:59;4.83;;;4.00;;
11927;SDS011;6023;47.070;15.126;2023-05-10T08:54:31;7.53;;;6.30;;
11927;SDS011;6023;47.070;15.126;2023-05-10T08:57:02;7.93;;;4.63;;
11927;SDS011;6023;47.070;15.126;2023-05-10T08:59:30;5.50;;;4.73;;
11927;SDS011;6023;47.070;15.126;2023-05-10T09:01:59;6.37;;;4.50;;
11927;SDS011;6023;47.070;15.126;2023-05-10T09:04:28;5.40;;;4.20;;
11927;SDS011;6023;47.070;15.126;2023-05-10T09:06:57;5.87;;;4.40;;
11927;SDS011;6023;47.070;15.126;2023-05-10T09:09:26;5.27;;;4.63;;
11927;SDS011;6023;47.070;15.126;2023-05-10T09:11:55;5.57;;;4.60;;
11927;SDS011;6023;47.070;15.126;2023-05-10T09:14:25;8.53;;;6.00;;
11927;SDS011;6023;47.070;15.126;2023-05-10T09:16:54;5.60;;;4.70;;
11927;SDS011;6023;47.070;15.126;2023-05-10T09:19:22;6.10;;;4.20;;
11927;SDS011;6023;47.070;15.126;2023-05-10T09:21:51;5.80;;;3.97;;
11927;SDS011;6023;47.070;15.126;2023-05-10T09:24:20;5.57;;;4.40;;
11927;SDS011;6023;47.070;15.126;2023-05-10T09:26:53;4.60;;;4.10;;
11927;SDS011;6023;47.070;15.126;2023-05-10T09:29:21;5.43;;;4.20;;
11927;SDS011;6023;47.070;15.126;2023-05-10T09:31:51;5.00;;;3.80;;
11927;SDS011;6023;47.070;15.126;2023-05-10T09:34:22;4.53;;;3.70;;
11927;SDS011;6023;47.070;15.126;2023-05-10T09:36:57;4.63;;;3.70;;
11927;SDS011;6023;47.070;15.126;2023-05-10T09:39:29;5.10;;;4.07;;
11927;SDS011;6023;47.070;15.126;2023-05-10T09:41:59;3.90;;;3.50;;
11927;SDS011;6023;47.070;15.126;2023-05-10T09:44:30;3.90;;;3.50;;
11927;SDS011;6023;47.070;15.126;2023-05-10T09:47:00;4.10;;;3.60;;
11927;SDS011;6023;47.070;15.126;2023-05-10T09:49:29;4.60;;;3.47;;
11927;SDS011;6023;47.070;15.126;2023-05-10T09:52:02;3.40;;;3.10;;
11927;SDS011;6023;47.070;15.126;2023-05-10T09:54:31;5.57;;;4.87;;
11927;SDS011;6023;47.070;15.126;2023-05-10T09:57:00;5.73;;;5.00;;
11927;SDS011;6023;47.070;15.126;2023-05-10T09:59:29;8.27;;;7.43;;
11927;SDS011;6023;47.070;15.126;2023-05-10T10:01:58;3.60;;;3.23;;
11927;SDS011;6023;47.070;15.126;2023-05-10T10:04:29;4.00;;;3.30;;
11927;SDS011;6023;47.070;15.126;2023-05-10T10:06:59;3.40;;;3.00;;
11927;SDS011;6023;47.070;15.126;2023-05-10T10:09:29;3.73;;;3.30;;
11927;SDS011;6023;47.070;15.126;2023-05-10T10:11:59;4.10;;;3.27;;
11927;SDS011;6023;47.070;15.126;2023-05-10T10:14:29;3.10;;;2.80;;
11927;SDS011;6023;47.070;15.126;2023-05-10T10:16:58;4.50;;;2.90;;
11927;SDS011;6023;47.070;15.126;2023-05-10T10:19:34;3.23;;;2.93;;
11927;SDS011;6023;47.070;15.126;2023-05-10T10:22:04;4.30;;;2.90;;
11927;SDS011;6023;47.070;15.126;2023-05-10T10:24:33;3.43;;;2.80;;
11927;SDS011;6023;47.070;15.126;2023-05-10T10:27:03;3.80;;;3.10;;
11927;SDS011;6023;47.070;15.126;2023-05-10T10:29:39;3.17;;;2.87;;
11927;SDS011;6023;47.070;15.126;2023-05-10T10:32:19;5.80;;;3.27;;
11927;SDS011;6023;47.070;15.126;2023-05-10T10:34:50;4.13;;;3.13;;
11927;SDS011;6023;47.070;15.126;2023-05-10T10:37:20;4.30;;;3.30;;
11927;SDS011;6023;47.070;15.126;2023-05-10T10:39:48;3.40;;;3.10;;
11927;SDS011;6023;47.070;15.126;2023-05-10T10:45:13;4.33;;;3.23;;
11927;SDS011;6023;47.070;15.126;2023-05-10T10:47:43;3.70;;;2.57;;
11927;SDS011;6023;47.070;15.126;2023-05-10T10:50:12;3.43;;;2.70;;
11927;SDS011;6023;47.070;15.126;2023-05-10T10:52:44;3.87;;;2.97;;
11927;SDS011;6023;47.070;15.126;2023-05-10T10:55:13;4.50;;;3.30;;
11927;SDS011;6023;47.070;15.126;2023-05-10T10:57:45;4.90;;;3.23;;
11927;SDS011;6023;47.070;15.126;2023-05-10T11:00:28;3.13;;;2.70;;
11927;SDS011;6023;47.070;15.126;2023-05-10T11:02:59;5.13;;;2.80;;
11927;SDS011;6023;47.070;15.126;2023-05-10T11:05:37;3.50;;;3.03;;
11927;SDS011;6023;47.070;15.126;2023-05-10T11:08:10;3.20;;;2.90;;
11927;SDS011;6023;47.070;15.126;2023-05-10T11:10:48;3.30;;;2.70;;
11927;SDS011;6023;47.070;15.126;2023-05-10T11:13:26;3.93;;;2.90;;
11927;SDS011;6023;47.070;15.126;2023-05-10T11:15:56;5.10;;;2.93;;
11927;SDS011;6023;47.070;15.126;2023-05-10T11:18:27;5.30;;;2.83;;
11927;SDS011;6023;47.070;15.126;2023-05-10T11:20:57;3.37;;;2.77;;
11927;SDS011;6023;47.070;15.126;2023-05-10T11:23:32;3.07;;;2.77;;
11927;SDS011;6023;47.070;15.126;2023-05-10T11:26:01;4.43;;;2.83;;
11927;SDS011;6023;47.070;15.126;2023-05-10T11:28:31;3.30;;;2.63;;
11927;SDS011;6023;47.070;15.126;2023-05-10T11:31:00;3.50;;;2.77;;
11927;SDS011;6023;47.070;15.126;2023-05-10T11:33:30;2.50;;;2.30;;
11927;SDS011;6023;47.070;15.126;2023-05-10T11:35:58;3.60;;;2.77;;
11927;SDS011;6023;47.070;15.126;2023-05-10T11:38:27;2.90;;;2.23;;
11927;SDS011;6023;47.070;15.126;2023-05-10T11:40:55;2.57;;;2.37;;
11927;SDS011;6023;47.070;15.126;2023-05-10T11:43:24;2.90;;;2.57;;
11927;SDS011;6023;47.070;15.126;2023-05-10T11:45:57;2.13;;;2.00;;
11927;SDS011;6023;47.070;15.126;2023-05-10T11:48:26;2.30;;;2.10;;
11927;SDS011;6023;47.070;15.126;2023-05-10T11:50:56;2.40;;;2.10;;
11927;SDS011;6023;47.070;15.126;2023-05-10T11:53:25;2.87;;;2.20;;
11927;SDS011;6023;47.070;15.126;2023-05-10T11:55:54;2.43;;;2.23;;
11927;SDS011;6023;47.070;15.126;2023-05-10T11:58:24;2.30;;;2.10;;
11927;SDS011;6023;47.070;15.126;2023-05-10T12:00:53;2.50;;;2.30;;
11927;SDS011;6023;47.070;15.126;2023-05-10T12:03:21;4.33;;;2.40;;
11927;SDS011;6023;47.070;15.126;2023-05-10T12:05:57;4.43;;;3.60;;
11927;SDS011;6023;47.070;15.126;2023-05-10T12:08:28;4.23;;;3.37;;
11927;SDS011;6023;47.070;15.126;2023-05-10T12:11:04;6.40;;;3.20;;
11927;SDS011;6023;47.070;15.126;2023-05-10T12:13:37;3.40;;;2.40;;
11927;SDS011;6023;47.070;15.126;2023-05-10T12:16:13;2.23;;;2.10;;
11927;SDS011;6023;47.070;15.126;2023-05-10T12:18:42;2.40;;;2.20;;
11927;SDS011;6023;47.070;15.126;2023-05-10T12:21:12;1.93;;;1.80;;
11927;SDS011;6023;47.070;15.126;2023-05-10T12:23:42;3.33;;;2.10;;
11927;SDS011;6023;47.070;15.126;2023-05-10T12:26:13;3.77;;;2.30;;
11927;SDS011;6023;47.070;15.126;2023-05-10T12:28:42;3.63;;;2.70;;
11927;SDS011;6023;47.070;15.126;2023-05-10T12:31:11;2.70;;;2.50;;
11927;SDS011;6023;47.070;15.126;2023-05-10T12:33:40;3.57;;;2.80;;
11927;SDS011;6023;47.070;15.126;2023-05-10T12:36:09;4.87;;;3.50;;
11927;SDS011;6023;47.070;15.126;2023-05-10T12:38:40;3.00;;;2.47;;
11927;SDS011;6023;47.070;15.126;2023-05-10T12:41:10;2.13;;;1.93;;
11927;SDS011;6023;47.070;15.126;2023-05-10T12:43:40;7.10;;;2.57;;
11927;SDS011;6023;47.070;15.126;2023-05-10T12:46:08;2.20;;;2.00;;
11927;SDS011;6023;47.070;15.126;2023-05-10T12:48:38;5.23;;;2.10;;
11927;SDS011;6023;47.070;15.126;2023-05-10T12:51:08;3.10;;;2.17;;
11927;SDS011;6023;47.070;15.126;2023-05-10T12:53:39;2.30;;;2.10;;
11927;SDS011;6023;47.070;15.126;2023-05-10T12:56:11;2.50;;;2.30;;
11927;SDS011;6023;47.070;15.126;2023-05-10T12:58:40;2.03;;;1.80;;
11927;SDS011;6023;47.070;15.126;2023-05-10T13:01:08;2.03;;;1.90;;
11927;SDS011;6023;47.070;15.126;2023-05-10T13:03:37;2.10;;;1.80;;
11927;SDS011;6023;47.070;15.126;2023-05-10T13:06:06;3.57;;;2.30;;
11927;SDS011;6023;47.070;15.126;2023-05-10T13:08:34;5.37;;;2.87;;
11927;SDS011;6023;47.070;15.126;2023-05-10T13:11:05;3.23;;;2.60;;
11927;SDS011;6023;47.070;15.126;2023-05-10T13:13:34;2.97;;;2.67;;
11927;SDS011;6023;47.070;15.126;2023-05-10T13:16:02;3.33;;;2.63;;
11927;SDS011;6023;47.070;15.126;2023-05-10T13:18:32;3.10;;;2.80;;
11927;SDS011;6023;47.070;15.126;2023-05-10T13:21:02;3.50;;;3.13;;
11927;SDS011;6023;47.070;15.126;2023-05-10T13:23:32;4.13;;;3.20;;
11927;SDS011;6023;47.070;15.126;2023-05-10T13:26:00;3.33;;;3.03;;
11927;SDS011;6023;47.070;15.126;2023-05-10T13:28:30;7.70;;;6.20;;
11927;SDS011;6023;47.070;15.126;2023-05-10T13:30:59;3.87;;;3.10;;
11927;SDS011;6023;47.070;15.126;2023-05-10T13:33:27;5.70;;;3.17;;
11927;SDS011;6023;47.070;15.126;2023-05-10T13:35:56;3.90;;;3.50;;
11927;SDS011;6023;47.070;15.126;2023-05-10T13:38:24;4.43;;;3.20;;
11927;SDS011;6023;47.070;15.126;2023-05-10T13:40:53;4.60;;;3.50;;
11927;SDS011;6023;47.070;15.126;2023-05-10T13:43:21;4.10;;;3.70;;
11927;SDS011;6023;47.070;15.126;2023-05-10T13:45:52;4.60;;;3.47;;
11927;SDS011;6023;47.070;15.126;2023-05-10T13:48:21;4.03;;;3.73;;
11927;SDS011;6023;47.070;15.126;2023-05-10T13:50:49;5.13;;;4.00;;
11927;SDS011;6023;47.070;15.126;2023-05-10T13:53:18;4.87;;;4.27;;
11927;SDS011;6023;47.070;15.126;2023-05-10T13:55:47;4.80;;;4.00;;
11927;SDS011;6023;47.070;15.126;2023-05-10T13:58:16;5.17;;;3.90;;
11927;SDS011;6023;47.070;15.126;2023-05-10T14:00:44;6.13;;;4.60;;
11927;SDS011;6023;47.070;15.126;2023-05-10T14:03:14;5.80;;;4.00;;
11927;SDS011;6023;47.070;15.126;2023-05-10T14:05:43;4.40;;;4.00;;
11927;SDS011;6023;47.070;15.126;2023-05-10T14:08:12;7.53;;;4.43;;
11927;SDS011;6023;47.070;15.126;2023-05-10T14:10:41;5.57;;;4.50;;
11927;SDS011;6023;47.070;15.126;2023-05-10T14:13:09;6.60;;;4.30;;
11927;SDS011;6023;47.070;15.126;2023-05-10T14:15:38;5.57;;;5.03;;
11927;SDS011;6023;47.070;15.126;2023-05-10T14:18:07;5.37;;;4.87;;
11927;SDS011;6023;47.070;15.126;2023-05-10T14:20:37;6.47;;;5.00;;
11927;SDS011;6023;47.070;15.126;2023-05-10T14:23:05;4.90;;;4.40;;
11927;SDS011;6023;47.070;15.126;2023-05-10T14:25:37;6.53;;;5.20;;
11927;SDS011;6023;47.070;15.126;2023-05-10T14:28:07;4.40;;;4.00;;
11927;SDS011;6023;47.070;15.126;2023-05-10T14:30:36;4.60;;;4.20;;
11927;SDS011;6023;47.070;15.126;2023-05-10T14:33:04;5.90;;;4.03;;
11927;SDS011;6023;47.070;15.126;2023-05-10T14:35:34;5.17;;;4.23;;
11927;SDS011;6023;47.070;15.126;2023-05-10T14:38:04;8.70;;;5.70;;
11927;SDS011;6023;47.070;15.126;2023-05-10T14:40:33;4.90;;;4.27;;
11927;SDS011;6023;47.070;15.126;2023-05-10T14:43:01;6.40;;;4.87;;
11927;SDS011;6023;47.070;15.126;2023-05-10T14:45:33;3.83;;;3.50;;
11927;SDS011;6023;47.070;15.126;2023-05-10T14:48:02;4.03;;;3.63;;
11927;SDS011;6023;47.070;15.126;2023-05-10T14:50:32;4.70;;;4.20;;
11927;SDS011;6023;47.070;15.126;2023-05-10T14:53:06;4.57;;;4.03;;
11927;SDS011;6023;47.070;15.126;2023-05-10T14:55:34;4.30;;;3.90;;
11927;SDS011;6023;47.070;15.126;2023-05-10T14:58:04;5.20;;;4.23;;
11927;SDS011;6023;47.070;15.126;2023-05-10T15:00:33;4.10;;;3.70;;
11927;SDS011;6023;47.070;15.126;2023-05-10T15:03:02;4.27;;;3.87;;
11927;SDS011;6023;47.070;15.126;2023-05-10T15:05:31;4.50;;;3.90;;
11927;SDS011;6023;47.070;15.126;2023-05-10T15:08:00;5.90;;;3.97;;
11927;SDS011;6023;47.070;15.126;2023-05-10T15:10:30;4.13;;;3.77;;
11927;SDS011;6023;47.070;15.126;2023-05-10T15:13:00;5.53;;;4.50;;